sensor_id;sensor_type;location;lat;lon;timestamp;P1;durP1;ratioP1;P2;durP2;ratioP2
17520;SDS011;8878;-33.370;-70.552;2023-05-10T00:01:52;28.52;;;9.35;;
17520;SDS011;8878;-33.370;-70.552;2023-05-10T00:04:21;28.98;;;8.57;;
17520;SDS011;8878;-33.370;-70.552;2023-05-10T00:06:54;38.95;;;9.55;;
17520;SDS011;8878;-33.370;-70.552;2023-05-10T00:09:24;29.63;;;9.18;;
17520;SDS011;8878;-33.370;-70.552;2023-05-10T00:11:54;32.75;;;9.13;;
17520;SDS011;8878;-33.370;-70.552;2023-05-10T00:14:24;42.47;;;8.75;;
17520;SDS011;8878;-33.370;-70.552;2023-05-10T00:16:54;23.52;;;8.85;;
17520;SDS011;8878;-33.370;-70.552;2023-05-10T00:19:23;30.83;;;9.10;;
17520;SDS011;8878;-33.370;-70.552;2023-05-10T00:21:54;27.83;;;8.70;;
17520;SDS011;8878;-33.370;-70.552;2023-05-10T00:24:24;31.25;;;7.70;;
17520;SDS011;8878;-33.370;-70.552;2023-05-10T00:26:54;34.05;;;10.40;;
17520;SDS011;8878;-33.370;-70.552;2023-05-10T00:29:23;24.38;;;9.88;;
17520;SDS011;8878;-33.370;-70.552;2023-05-10T00:31:54;19.33;;;8.30;;
17520;SDS011;8878;-33.370;-70.552;2023-05-10T00:34:23;25.38;;;7.97;;
17520;SDS011;8878;-33.370;-70.552;2023-05-10T00:36:54;37.78;;;10.93;;
17520;SDS011;8878;-33.370;-70.552;2023-05-10T00:39:24;32.75;;;9.13;;
17520;SDS011;8878;-33.370;-70.552;2023-05-10T00:41:54;35.53;;;9.20;;
17520;SDS011;8878;-33.370;-70.552;2023-05-10T00:44:24;26.70;;;8.25;;
17520;SDS011;8878;-33.370;-70.552;2023-05-10T00:46:54;28.92;;;9.38;;
17520;SDS011;8878;-33.370;-70.552;2023-05-10T00:49:24;40.10;;;8.50;;
17520;SDS011;8878;-33.370;-70.552;2023-05-10T00:51:55;35.45;;;9.63;;
17520;SDS011;8878;-33.370;-70.552;2023-05-10T00:54:25;38.08;;;10.05;;
17520;SDS011;8878;-33.370;-70.552;2023-05-10T00:56:54;32.30;;;10.25;;
17520;SDS011;8878;-33.370;-70.552;2023-05-10T00:59:24;25.88;;;9.65;;
17520;SDS011;8878;-33.370;-70.552;2023-05-10T01:01:54;17.23;;;7.70;;
17520;SDS011;8878;-33.370;-70.552;2023-05-10T01:04:24;28.52;;;9.07;;
17520;SDS011;8878;-33.370;-70.552;2023-05-10T01:06:56;25.40;;;8.38;;
17520;SDS011;8878;-33.370;-70.552;2023-05-10T01:09:25;28.73;;;9.15;;
17520;SDS011;8878;-33.370;-70.552;2023-05-10T01:11:55;37.40;;;10.73;;
17520;SDS011;8878;-33.370;-70.552;2023-05-10T01:14:25;26.10;;;9.27;;
17520;SDS011;8878;-33.370;-70.552;2023-05-10T01:16:56;37.47;;;9.52;;
17520;SDS011;8878;-33.370;-70.552;2023-05-10T01:19:26;36.03;;;10.48;;
17520;SDS011;8878;-33.370;-70.552;2023-05-10T01:22:02;32.30;;;10.10;;
17520;SDS011;8878;-33.370;-70.552;2023-05-10T01:24:43;30.80;;;9.77;;
17520;SDS011;8878;-33.370;-70.552;2023-05-10T01:27:44;23.98;;;9.07;;
17520;SDS011;8878;-33.370;-70.552;2023-05-10T01:30:35;30.45;;;10.50;;
17520;SDS011;8878;-33.370;-70.552;2023-05-10T01:33:21;37.97;;;9.27;;
17520;SDS011;8878;-33.370;-70.552;2023-05-10T01:35:56;31.17;;;8.90;;
17520;SDS011;8878;-33.370;-70.552;2023-05-10T01:38:34;44.17;;;10.77;;
17520;SDS011;8878;-33.370;-70.552;2023-05-10T01:41:13;29.08;;;8.50;;
17520;SDS011;8878;-33.370;-70.552;2023-05-10T01:43:48;32.75;;;9.50;;
17520;SDS011;8878;-33.370;-70.552;2023-05-10T01:46:26;22.55;;;8.70;;
17520;SDS011;8878;-33.370;-70.552;2023-05-10T01:49:02;33.50;;;10.02;;
17520;SDS011;8878;-33.370;-70.552;2023-05-10T01:51:37;28.38;;;7.43;;
17520;SDS011;8878;-33.370;-70.552;2023-05-10T01:54:10;32.03;;;10.73;;
17520;SDS011;8878;-33.370;-70.552;2023-05-10T01:56:42;26.90;;;9.40;;
17520;SDS011;8878;-33.370;-70.552;2023-05-10T01:59:16;32.05;;;8.63;;
17520;SDS011;8878;-33.370;-70.552;2023-05-10T02:01:47;25.17;;;8.10;;
17520;SDS011;8878;-33.370;-70.552;2023-05-10T02:04:21;23.48;;;8.70;;
17520;SDS011;8878;-33.370;-70.552;2023-05-10T02:06:51;42.35;;;11.25;;
17520;SDS011;8878;-33.370;-70.552;2023-05-10T02:09:23;26.65;;;9.63;;
17520;SDS011;8878;-33.370;-70.552;2023-05-10T02:11:55;29.95;;;8.80;;
17520;SDS011;8878;-33.370;-70.552;2023-05-10T02:14:28;30.67;;;9.43;;
17520;SDS011;8878;-33.370;-70.552;2023-05-10T02:16:59;28.80;;;9.95;;
17520;SDS011;8878;-33.370;-70.552;2023-05-10T02:19:32;25.63;;;7.40;;
17520;SDS011;8878;-33.370;-70.552;2023-05-10T02:22:02;30.60;;;7.68;;
17520;SDS011;8878;-33.370;-70.552;2023-05-10T02:24:34;35.53;;;7.88;;
17520;SDS011;8878;-33.370;-70.552;2023-05-10T02:27:04;18.05;;;6.95;;
17520;SDS011;8878;-33.370;-70.552;2023-05-10T02:29:36;29.55;;;7.30;;
17520;SDS011;8878;-33.370;-70.552;2023-05-10T02:32:08;26.63;;;7.45;;
17520;SDS011;8878;-33.370;-70.552;2023-05-10T02:34:41;20.85;;;7.65;;
17520;SDS011;8878;-33.370;-70.552;2023-05-10T02:37:12;25.50;;;9.30;;
17520;SDS011;8878;-33.370;-70.552;2023-05-10T02:39:44;32.45;;;8.27;;
17520;SDS011;8878;-33.370;-70.552;2023-05-10T02:42:15;27.00;;;7.90;;
17520;SDS011;8878;-33.370;-70.552;2023-05-10T02:44:47;21.83;;;6.97;;
17520;SDS011;8878;-33.370;-70.552;2023-05-10T02:47:18;25.55;;;7.03;;
17520;SDS011;8878;-33.370;-70.552;2023-05-10T02:49:50;29.23;;;8.25;;
17520;SDS011;8878;-33.370;-70.552;2023-05-10T02:52:21;24.70;;;9.38;;
17520;SDS011;8878;-33.370;-70.552;2023-05-10T02:54:54;25.85;;;8.95;;
17520;SDS011;8878;-33.370;-70.552;2023-05-10T02:57:27;22.33;;;7.47;;
17520;SDS011;8878;-33.370;-70.552;2023-05-10T03:00:02;33.25;;;8.32;;
17520;SDS011;8878;-33.370;-70.552;2023-05-10T03:02:32;23.17;;;6.50;;
17520;SDS011;8878;-33.370;-70.552;2023-05-10T03:05:04;17.80;;;7.57;;
17520;SDS011;8878;-33.370;-70.552;2023-05-10T03:07:34;24.92;;;7.65;;
17520;SDS011;8878;-33.370;-70.552;2023-05-10T03:10:04;26.45;;;7.90;;
17520;SDS011;8878;-33.370;-70.552;2023-05-10T03:12:39;28.60;;;8.20;;
17520;SDS011;8878;-33.370;-70.552;2023-05-10T03:15:22;25.33;;;6.97;;
17520;SDS011;8878;-33.370;-70.552;2023-05-10T03:18:01;19.98;;;6.55;;
17520;SDS011;8878;-33.370;-70.552;2023-05-10T03:20:38;23.83;;;7.13;;
17520;SDS011;8878;-33.370;-70.552;2023-05-10T03:23:12;18.17;;;7.70;;
17520;SDS011;8878;-33.370;-70.552;2023-05-10T03:25:49;13.80;;;5.53;;
17520;SDS011;8878;-33.370;-70.552;2023-05-10T03:28:20;19.92;;;5.53;;
17520;SDS011;8878;-33.370;-70.552;2023-05-10T03:30:53;20.45;;;6.07;;
17520;SDS011;8878;-33.370;-70.552;2023-05-10T03:33:24;18.67;;;6.38;;
17520;SDS011;8878;-33.370;-70.552;2023-05-10T03:35:55;16.67;;;6.10;;
17520;SDS011;8878;-33.370;-70.552;2023-05-10T03:38:24;13.83;;;5.97;;
17520;SDS011;8878;-33.370;-70.552;2023-05-10T03:40:54;23.13;;;6.53;;
17520;SDS011;8878;-33.370;-70.552;2023-05-10T03:43:23;21.92;;;5.88;;
17520;SDS011;8878;-33.370;-70.552;2023-05-10T03:45:53;23.57;;;7.30;;
17520;SDS011;8878;-33.370;-70.552;2023-05-10T03:48:23;22.30;;;6.35;;
17520;SDS011;8878;-33.370;-70.552;2023-05-10T03:50:52;18.97;;;6.27;;
17520;SDS011;8878;-33.370;-70.552;2023-05-10T03:53:24;19.27;;;6.23;;
17520;SDS011;8878;-33.370;-70.552;2023-05-10T03:55:53;18.50;;;6.00;;
17520;SDS011;8878;-33.370;-70.552;2023-05-10T03:58:23;18.10;;;6.43;;
17520;SDS011;8878;-33.370;-70.552;2023-05-10T04:00:52;19.73;;;5.43;;
17520;SDS011;8878;-33.370;-70.552;2023-05-10T04:03:22;18.60;;;5.27;;
17520;SDS011;8878;-33.370;-70.552;2023-05-10T04:06:00;21.10;;;6.70;;
17520;SDS011;8878;-33.370;-70.552;2023-05-10T04:08:30;15.82;;;4.60;;
17520;SDS011;8878;-33.370;-70.552;2023-05-10T04:11:07;21.33;;;6.00;;
17520;SDS011;8878;-33.370;-70.552;2023-05-10T04:13:38;13.93;;;4.87;;
17520;SDS011;8878;-33.370;-70.552;2023-05-10T04:16:08;13.03;;;5.60;;
17520;SDS011;8878;-33.370;-70.552;2023-05-10T04:18:38;15.73;;;5.77;;
17520;SDS011;8878;-33.370;-70.552;2023-05-10T04:21:13;12.25;;;5.07;;
17520;SDS011;8878;-33.370;-70.552;2023-05-10T04:23:42;13.97;;;5.30;;
17520;SDS011;8878;-33.370;-70.552;2023-05-10T04:26:12;20.52;;;6.20;;
17520;SDS011;8878;-33.370;-70.552;2023-05-10T04:28:42;14.73;;;5.35;;
17520;SDS011;8878;-33.370;-70.552;2023-05-10T04:31:12;13.57;;;4.38;;
17520;SDS011;8878;-33.370;-70.552;2023-05-10T04:33:43;14.40;;;5.28;;
17520;SDS011;8878;-33.370;-70.552;2023-05-10T04:36:14;19.33;;;6.20;;
17520;SDS011;8878;-33.370;-70.552;2023-05-10T04:38:44;12.65;;;5.60;;
17520;SDS011;8878;-33.370;-70.552;2023-05-10T04:41:13;18.40;;;6.00;;
17520;SDS011;8878;-33.370;-70.552;2023-05-10T04:43:43;29.73;;;6.10;;
17520;SDS011;8878;-33.370;-70.552;2023-05-10T04:46:12;18.10;;;5.80;;
17520;SDS011;8878;-33.370;-70.552;2023-05-10T04:48:42;13.93;;;5.63;;
17520;SDS011;8878;-33.370;-70.552;2023-05-10T04:51:11;16.03;;;5.00;;
17520;SDS011;8878;-33.370;-70.552;2023-05-10T04:53:43;17.23;;;5.63;;
17520;SDS011;8878;-33.370;-70.552;2023-05-10T04:56:13;18.60;;;6.07;;
17520;SDS011;8878;-33.370;-70.552;2023-05-10T04:58:42;16.50;;;6.03;;
17520;SDS011;8878;-33.370;-70.552;2023-05-10T05:01:12;16.00;;;5.50;;
17520;SDS011;8878;-33.370;-70.552;2023-05-10T05:03:42;16.60;;;5.60;;
17520;SDS011;8878;-33.370;-70.552;2023-05-10T05:06:14;16.33;;;5.93;;
17520;SDS011;8878;-33.370;-70.552;2023-05-10T05:08:44;17.60;;;4.17;;
17520;SDS011;8878;-33.370;-70.552;2023-05-10T05:11:15;16.57;;;5.97;;
17520;SDS011;8878;-33.370;-70.552;2023-05-10T05:13:44;11.27;;;4.20;;
17520;SDS011;8878;-33.370;-70.552;2023-05-10T05:16:14;17.70;;;4.70;;
17520;SDS011;8878;-33.370;-70.552;2023-05-10T05:18:44;18.17;;;6.07;;
17520;SDS011;8878;-33.370;-70.552;2023-05-10T05:21:15;18.67;;;6.30;;
17520;SDS011;8878;-33.370;-70.552;2023-05-10T05:23:45;13.68;;;4.85;;
17520;SDS011;8878;-33.370;-70.552;2023-05-10T05:26:15;22.30;;;5.73;;
17520;SDS011;8878;-33.370;-70.552;2023-05-10T05:28:45;17.87;;;5.57;;
17520;SDS011;8878;-33.370;-70.552;2023-05-10T05:31:17;21.10;;;6.67;;
17520;SDS011;8878;-33.370;-70.552;2023-05-10T05:33:47;21.97;;;5.23;;
17520;SDS011;8878;-33.370;-70.552;2023-05-10T05:36:18;18.35;;;5.45;;
17520;SDS011;8878;-33.370;-70.552;2023-05-10T05:38:48;16.17;;;4.43;;
17520;SDS011;8878;-33.370;-70.552;2023-05-10T05:41:17;24.63;;;6.70;;
17520;SDS011;8878;-33.370;-70.552;2023-05-10T05:43:47;17.97;;;5.07;;
17520;SDS011;8878;-33.370;-70.552;2023-05-10T05:46:17;14.98;;;4.32;;
17520;SDS011;8878;-33.370;-70.552;2023-05-10T05:48:46;20.63;;;5.40;;
17520;SDS011;8878;-33.370;-70.552;2023-05-10T05:51:16;22.07;;;5.97;;
17520;SDS011;8878;-33.370;-70.552;2023-05-10T05:53:47;23.13;;;6.03;;
17520;SDS011;8878;-33.370;-70.552;2023-05-10T05:56:18;11.83;;;4.97;;
17520;SDS011;8878;-33.370;-70.552;2023-05-10T05:58:50;19.05;;;5.85;;
17520;SDS011;8878;-33.370;-70.552;2023-05-10T06:01:19;15.97;;;4.83;;
17520;SDS011;8878;-33.370;-70.552;2023-05-10T06:03:49;12.63;;;4.03;;
17520;SDS011;8878;-33.370;-70.552;2023-05-10T06:06:20;12.20;;;4.43;;
17520;SDS011;8878;-33.370;-70.552;2023-05-10T06:08:50;16.50;;;5.40;;
17520;SDS011;8878;-33.370;-70.552;2023-05-10T06:11:19;20.63;;;5.30;;
17520;SDS011;8878;-33.370;-70.552;2023-05-10T06:13:49;11.77;;;4.57;;
17520;SDS011;8878;-33.370;-70.552;2023-05-10T06:16:18;11.43;;;3.37;;
17520;SDS011;8878;-33.370;-70.552;2023-05-10T06:18:48;17.37;;;5.03;;
17520;SDS011;8878;-33.370;-70.552;2023-05-10T06:21:18;14.33;;;4.97;;
17520;SDS011;8878;-33.370;-70.552;2023-05-10T06:23:49;9.73;;;3.67;;
17520;SDS011;8878;-33.370;-70.552;2023-05-10T06:26:19;13.73;;;4.93;;
17520;SDS011;8878;-33.370;-70.552;2023-05-10T06:28:48;14.73;;;5.57;;
17520;SDS011;8878;-33.370;-70.552;2023-05-10T06:31:17;17.50;;;5.90;;
17520;SDS011;8878;-33.370;-70.552;2023-05-10T06:33:47;23.47;;;5.43;;
17520;SDS011;8878;-33.370;-70.552;2023-05-10T06:36:17;12.90;;;4.53;;
17520;SDS011;8878;-33.370;-70.552;2023-05-10T06:38:48;14.97;;;4.50;;
17520;SDS011;8878;-33.370;-70.552;2023-05-10T06:41:17;11.23;;;5.10;;
17520;SDS011;8878;-33.370;-70.552;2023-05-10T06:43:47;19.43;;;4.47;;
17520;SDS011;8878;-33.370;-70.552;2023-05-10T06:46:16;20.07;;;4.43;;
17520;SDS011;8878;-33.370;-70.552;2023-05-10T06:48:46;10.97;;;3.73;;
17520;SDS011;8878;-33.370;-70.552;2023-05-10T06:51:16;12.63;;;4.20;;
17520;SDS011;8878;-33.370;-70.552;2023-05-10T06:53:48;7.13;;;4.23;;
17520;SDS011;8878;-33.370;-70.552;2023-05-10T06:56:19;17.60;;;4.50;;
17520;SDS011;8878;-33.370;-70.552;2023-05-10T06:58:49;10.80;;;4.83;;
17520;SDS011;8878;-33.370;-70.552;2023-05-10T07:01:18;9.97;;;3.47;;
17520;SDS011;8878;-33.370;-70.552;2023-05-10T07:03:48;9.83;;;3.93;;
17520;SDS011;8878;-33.370;-70.552;2023-05-10T07:06:18;9.60;;;5.03;;
17520;SDS011;8878;-33.370;-70.552;2023-05-10T07:08:49;8.23;;;3.70;;
17520;SDS011;8878;-33.370;-70.552;2023-05-10T07:11:18;14.07;;;3.33;;
17520;SDS011;8878;-33.370;-70.552;2023-05-10T07:13:48;13.73;;;5.17;;
17520;SDS011;8878;-33.370;-70.552;2023-05-10T07:16:18;16.70;;;4.37;;
17520;SDS011;8878;-33.370;-70.552;2023-05-10T07:18:47;12.70;;;4.67;;
17520;SDS011;8878;-33.370;-70.552;2023-05-10T07:21:17;15.37;;;4.03;;
17520;SDS011;8878;-33.370;-70.552;2023-05-10T07:23:46;10.60;;;3.50;;
17520;SDS011;8878;-33.370;-70.552;2023-05-10T07:26:18;9.13;;;3.40;;
17520;SDS011;8878;-33.370;-70.552;2023-05-10T07:28:47;13.37;;;5.13;;
17520;SDS011;8878;-33.370;-70.552;2023-05-10T07:31:17;8.50;;;3.67;;
17520;SDS011;8878;-33.370;-70.552;2023-05-10T07:33:46;9.70;;;3.93;;
17520;SDS011;8878;-33.370;-70.552;2023-05-10T07:36:16;11.60;;;3.30;;
17520;SDS011;8878;-33.370;-70.552;2023-05-10T07:38:45;11.93;;;3.77;;
17520;SDS011;8878;-33.370;-70.552;2023-05-10T07:41:18;12.00;;;3.80;;
17520;SDS011;8878;-33.370;-70.552;2023-05-10T07:43:48;11.03;;;3.10;;
17520;SDS011;8878;-33.370;-70.552;2023-05-10T07:46:17;12.53;;;3.73;;
17520;SDS011;8878;-33.370;-70.552;2023-05-10T07:48:47;10.87;;;3.43;;
17520;SDS011;8878;-33.370;-70.552;2023-05-10T07:51:19;6.77;;;3.60;;
17520;SDS011;8878;-33.370;-70.552;2023-05-10T07:53:49;12.67;;;3.37;;
17520;SDS011;8878;-33.370;-70.552;2023-05-10T07:56:24;5.13;;;2.53;;
17520;SDS011;8878;-33.370;-70.552;2023-05-10T07:58:57;9.20;;;2.87;;
17520;SDS011;8878;-33.370;-70.552;2023-05-10T08:01:29;8.77;;;2.87;;
17520;SDS011;8878;-33.370;-70.552;2023-05-10T08:03:59;5.93;;;2.60;;
17520;SDS011;8878;-33.370;-70.552;2023-05-10T08:06:29;9.33;;;3.50;;
17520;SDS011;8878;-33.370;-70.552;2023-05-10T08:08:59;8.30;;;3.50;;
17520;SDS011;8878;-33.370;-70.552;2023-05-10T08:11:30;14.03;;;3.90;;
17520;SDS011;8878;-33.370;-70.552;2023-05-10T08:14:00;10.83;;;3.97;;
17520;SDS011;8878;-33.370;-70.552;2023-05-10T08:16:29;8.20;;;3.50;;
17520;SDS011;8878;-33.370;-70.552;2023-05-10T08:19:00;12.77;;;4.60;;
17520;SDS011;8878;-33.370;-70.552;2023-05-10T08:21:29;13.77;;;3.77;;
17520;SDS011;8878;-33.370;-70.552;2023-05-10T08:23:59;11.63;;;3.70;;
17520;SDS011;8878;-33.370;-70.552;2023-05-10T08:26:30;5.20;;;2.20;;
17520;SDS011;8878;-33.370;-70.552;2023-05-10T08:29:00;7.50;;;2.40;;
17520;SDS011;8878;-33.370;-70.552;2023-05-10T08:31:29;3.77;;;2.23;;
17520;SDS011;8878;-33.370;-70.552;2023-05-10T08:33:59;9.97;;;3.47;;
17520;SDS011;8878;-33.370;-70.552;2023-05-10T08:36:28;10.93;;;3.30;;
17520;SDS011;8878;-33.370;-70.552;2023-05-10T08:38:58;7.43;;;2.90;;
17520;SDS011;8878;-33.370;-70.552;2023-05-10T08:41:28;7.10;;;3.03;;
17520;SDS011;8878;-33.370;-70.552;2023-05-10T08:44:02;12.43;;;3.03;;
17520;SDS011;8878;-33.370;-70.552;2023-05-10T08:46:34;3.63;;;2.90;;
17520;SDS011;8878;-33.370;-70.552;2023-05-10T08:49:08;7.93;;;3.10;;
17520;SDS011;8878;-33.370;-70.552;2023-05-10T08:51:40;5.80;;;3.00;;
17520;SDS011;8878;-33.370;-70.552;2023-05-10T08:54:18;5.83;;;2.20;;
17520;SDS011;8878;-33.370;-70.552;2023-05-10T08:56:49;4.30;;;2.53;;
17520;SDS011;8878;-33.370;-70.552;2023-05-10T08:59:19;7.33;;;2.77;;
17520;SDS011;8878;-33.370;-70.552;2023-05-10T09:01:49;6.97;;;2.00;;
17520;SDS011;8878;-33.370;-70.552;2023-05-10T09:04:20;7.57;;;2.23;;
17520;SDS011;8878;-33.370;-70.552;2023-05-10T09:06:51;6.93;;;1.87;;
17520;SDS011;8878;-33.370;-70.552;2023-05-10T09:09:20;6.43;;;2.10;;
17520;SDS011;8878;-33.370;-70.552;2023-05-10T09:11:54;4.70;;;1.87;;
17520;SDS011;8878;-33.370;-70.552;2023-05-10T09:14:23;7.28;;;2.13;;
17520;SDS011;8878;-33.370;-70.552;2023-05-10T09:16:54;6.07;;;2.20;;
17520;SDS011;8878;-33.370;-70.552;2023-05-10T09:19:24;2.87;;;2.10;;
17520;SDS011;8878;-33.370;-70.552;2023-05-10T09:21:54;4.00;;;1.77;;
17520;SDS011;8878;-33.370;-70.552;2023-05-10T09:24:26;6.60;;;1.97;;
17520;SDS011;8878;-33.370;-70.552;2023-05-10T09:26:59;4.47;;;1.67;;
17520;SDS011;8878;-33.370;-70.552;2023-05-10T09:29:39;6.63;;;1.77;;
17520;SDS011;8878;-33.370;-70.552;2023-05-10T09:32:08;7.83;;;2.00;;
17520;SDS011;8878;-33.370;-70.552;2023-05-10T09:34:37;7.30;;;1.90;;
17520;SDS011;8878;-33.370;-70.552;2023-05-10T09:37:08;4.20;;;0.93;;
17520;SDS011;8878;-33.370;-70.552;2023-05-10T09:39:37;5.77;;;1.53;;
17520;SDS011;8878;-33.370;-70.552;2023-05-10T09:42:09;5.50;;;1.50;;
17520;SDS011;8878;-33.370;-70.552;2023-05-10T09:44:39;3.23;;;1.93;;
17520;SDS011;8878;-33.370;-70.552;2023-05-10T09:47:09;3.60;;;1.20;;
17520;SDS011;8878;-33.370;-70.552;2023-05-10T09:49:39;6.17;;;2.00;;
17520;SDS011;8878;-33.370;-70.552;2023-05-10T09:52:10;2.90;;;1.50;;
17520;SDS011;8878;-33.370;-70.552;2023-05-10T09:54:42;5.80;;;2.10;;
17520;SDS011;8878;-33.370;-70.552;2023-05-10T09:57:23;3.10;;;1.73;;
17520;SDS011;8878;-33.370;-70.552;2023-05-10T09:59:53;2.43;;;1.33;;
17520;SDS011;8878;-33.370;-70.552;2023-05-10T10:02:28;3.33;;;1.80;;
17520;SDS011;8878;-33.370;-70.552;2023-05-10T10:04:58;4.23;;;1.73;;
17520;SDS011;8878;-33.370;-70.552;2023-05-10T10:07:30;4.77;;;1.53;;
17520;SDS011;8878;-33.370;-70.552;2023-05-10T10:10:00;3.33;;;1.60;;
17520;SDS011;8878;-33.370;-70.552;2023-05-10T10:12:32;3.13;;;1.47;;
17520;SDS011;8878;-33.370;-70.552;2023-05-10T10:15:02;7.27;;;1.70;;
17520;SDS011;8878;-33.370;-70.552;2023-05-10T10:17:32;2.63;;;1.10;;
17520;SDS011;8878;-33.370;-70.552;2023-05-10T10:20:03;1.83;;;1.30;;
17520;SDS011;8878;-33.370;-70.552;2023-05-10T10:22:33;3.13;;;1.03;;
17520;SDS011;8878;-33.370;-70.552;2023-05-10T10:25:04;2.00;;;1.17;;
17520;SDS011;8878;-33.370;-70.552;2023-05-10T10:27:39;1.27;;;1.17;;
17520;SDS011;8878;-33.370;-70.552;2023-05-10T10:30:19;2.63;;;1.57;;
17520;SDS011;8878;-33.370;-70.552;2023-05-10T10:35:58;3.93;;;1.40;;
17520;SDS011;8878;-33.370;-70.552;2023-05-10T10:41:30;1.57;;;1.20;;
17520;SDS011;8878;-33.370;-70.552;2023-05-10T10:50:05;3.83;;;1.10;;
17520;SDS011;8878;-33.370;-70.552;2023-05-10T10:52:36;1.80;;;1.23;;
17520;SDS011;8878;-33.370;-70.552;2023-05-10T10:55:07;2.10;;;1.47;;
17520;SDS011;8878;-33.370;-70.552;2023-05-10T10:57:44;1.87;;;0.90;;
17520;SDS011;8878;-33.370;-70.552;2023-05-10T11:00:19;0.70;;;0.53;;
17520;SDS011;8878;-33.370;-70.552;2023-05-10T11:02:52;2.07;;;1.53;;
17520;SDS011;8878;-33.370;-70.552;2023-05-10T11:05:34;1.47;;;1.30;;
17520;SDS011;8878;-33.370;-70.552;2023-05-10T11:08:11;4.33;;;2.03;;
17520;SDS011;8878;-33.370;-70.552;2023-05-10T11:10:52;2.57;;;1.00;;
17520;SDS011;8878;-33.370;-70.552;2023-05-10T11:13:33;2.07;;;1.73;;
17520;SDS011;8878;-33.370;-70.552;2023-05-10T11:16:15;3.33;;;1.20;;
17520;SDS011;8878;-33.370;-70.552;2023-05-10T11:21:44;4.50;;;1.13;;
17520;SDS011;8878;-33.370;-70.552;2023-05-10T11:24:15;3.23;;;0.80;;
17520;SDS011;8878;-33.370;-70.552;2023-05-10T11:26:49;2.23;;;1.07;;
17520;SDS011;8878;-33.370;-70.552;2023-05-10T11:29:19;1.07;;;0.93;;
17520;SDS011;8878;-33.370;-70.552;2023-05-10T11:31:48;1.67;;;0.70;;
17520;SDS011;8878;-33.370;-70.552;2023-05-10T11:34:27;1.40;;;0.93;;
17520;SDS011;8878;-33.370;-70.552;2023-05-10T11:36:59;3.30;;;1.07;;
17520;SDS011;8878;-33.370;-70.552;2023-05-10T11:39:29;2.47;;;0.67;;
17520;SDS011;8878;-33.370;-70.552;2023-05-10T11:41:59;0.63;;;0.63;;
17520;SDS011;8878;-33.370;-70.552;2023-05-10T11:44:29;4.83;;;1.00;;
17520;SDS011;8878;-33.370;-70.552;2023-05-10T11:46:59;1.70;;;0.50;;
17520;SDS011;8878;-33.370;-70.552;2023-05-10T11:49:31;1.93;;;0.70;;
17520;SDS011;8878;-33.370;-70.552;2023-05-10T11:52:04;4.70;;;1.37;;
17520;SDS011;8878;-33.370;-70.552;2023-05-10T11:54:34;0.73;;;0.73;;
17520;SDS011;8878;-33.370;-70.552;2023-05-10T11:57:04;2.13;;;0.83;;
17520;SDS011;8878;-33.370;-70.552;2023-05-10T11:59:33;2.05;;;0.73;;
17520;SDS011;8878;-33.370;-70.552;2023-05-10T12:02:04;2.10;;;1.27;;
17520;SDS011;8878;-33.370;-70.552;2023-05-10T12:04:36;2.30;;;0.97;;
17520;SDS011;8878;-33.370;-70.552;2023-05-10T12:07:05;0.97;;;0.87;;
17520;SDS011;8878;-33.370;-70.552;2023-05-10T12:09:35;2.90;;;1.23;;
17520;SDS011;8878;-33.370;-70.552;2023-05-10T12:12:04;3.72;;;1.33;;
17520;SDS011;8878;-33.370;-70.552;2023-05-10T12:14:35;2.00;;;0.90;;
17520;SDS011;8878;-33.370;-70.552;2023-05-10T12:17:05;1.08;;;0.88;;
17520;SDS011;8878;-33.370;-70.552;2023-05-10T12:19:39;2.70;;;0.90;;
17520;SDS011;8878;-33.370;-70.552;2023-05-10T12:22:09;1.02;;;0.95;;
17520;SDS011;8878;-33.370;-70.552;2023-05-10T12:24:39;3.50;;;1.37;;
17520;SDS011;8878;-33.370;-70.552;2023-05-10T12:27:08;4.35;;;1.45;;
17520;SDS011;8878;-33.370;-70.552;2023-05-10T12:29:41;3.00;;;1.20;;
17520;SDS011;8878;-33.370;-70.552;2023-05-10T12:32:11;3.83;;;2.33;;
17520;SDS011;8878;-33.370;-70.552;2023-05-10T12:34:43;3.00;;;1.77;;
17520;SDS011;8878;-33.370;-70.552;2023-05-10T12:37:15;3.13;;;1.77;;
17520;SDS011;8878;-33.370;-70.552;2023-05-10T12:39:45;7.47;;;2.72;;
17520;SDS011;8878;-33.370;-70.552;2023-05-10T12:42:15;4.05;;;1.83;;
17520;SDS011;8878;-33.370;-70.552;2023-05-10T12:44:44;3.55;;;1.75;;
17520;SDS011;8878;-33.370;-70.552;2023-05-10T12:47:14;4.35;;;2.55;;
17520;SDS011;8878;-33.370;-70.552;2023-05-10T12:49:46;6.90;;;3.42;;
17520;SDS011;8878;-33.370;-70.552;2023-05-10T12:52:16;10.75;;;2.40;;
17520;SDS011;8878;-33.370;-70.552;2023-05-10T12:54:46;15.50;;;2.95;;
17520;SDS011;8878;-33.370;-70.552;2023-05-10T12:57:15;9.65;;;3.10;;
17520;SDS011;8878;-33.370;-70.552;2023-05-10T12:59:45;8.57;;;3.35;;
17520;SDS011;8878;-33.370;-70.552;2023-05-10T13:02:15;8.18;;;2.55;;
17520;SDS011;8878;-33.370;-70.552;2023-05-10T13:04:48;4.28;;;2.42;;
17520;SDS011;8878;-33.370;-70.552;2023-05-10T13:07:18;5.68;;;2.42;;
17520;SDS011;8878;-33.370;-70.552;2023-05-10T13:09:48;9.55;;;2.38;;
17520;SDS011;8878;-33.370;-70.552;2023-05-10T13:12:17;5.90;;;2.92;;
17520;SDS011;8878;-33.370;-70.552;2023-05-10T13:14:47;5.72;;;2.17;;
17520;SDS011;8878;-33.370;-70.552;2023-05-10T13:17:17;7.20;;;2.40;;
17520;SDS011;8878;-33.370;-70.552;2023-05-10T13:19:48;4.22;;;1.63;;
17520;SDS011;8878;-33.370;-70.552;2023-05-10T13:22:18;4.75;;;1.95;;
17520;SDS011;8878;-33.370;-70.552;2023-05-10T13:24:47;5.25;;;2.00;;
17520;SDS011;8878;-33.370;-70.552;2023-05-10T13:27:17;5.57;;;1.80;;
17520;SDS011;8878;-33.370;-70.552;2023-05-10T13:29:46;5.03;;;1.75;;
17520;SDS011;8878;-33.370;-70.552;2023-05-10T13:32:16;4.43;;;2.03;;
17520;SDS011;8878;-33.370;-70.552;2023-05-10T13:34:45;4.15;;;1.60;;
17520;SDS011;8878;-33.370;-70.552;2023-05-10T13:37:17;3.80;;;1.50;;
17520;SDS011;8878;-33.370;-70.552;2023-05-10T13:39:47;1.77;;;1.10;;
17520;SDS011;8878;-33.370;-70.552;2023-05-10T13:42:17;8.88;;;1.85;;
17520;SDS011;8878;-33.370;-70.552;2023-05-10T13:44:46;2.33;;;1.33;;
17520;SDS011;8878;-33.370;-70.552;2023-05-10T13:47:16;3.05;;;1.20;;
17520;SDS011;8878;-33.370;-70.552;2023-05-10T13:49:50;2.15;;;1.13;;
17520;SDS011;8878;-33.370;-70.552;2023-05-10T13:52:19;5.03;;;1.50;;
17520;SDS011;8878;-33.370;-70.552;2023-05-10T13:54:49;6.82;;;1.50;;
17520;SDS011;8878;-33.370;-70.552;2023-05-10T13:57:20;2.53;;;1.25;;
17520;SDS011;8878;-33.370;-70.552;2023-05-10T13:59:50;5.03;;;1.67;;
17520;SDS011;8878;-33.370;-70.552;2023-05-10T14:02:20;4.18;;;2.47;;
17520;SDS011;8878;-33.370;-70.552;2023-05-10T14:04:52;6.03;;;1.75;;
17520;SDS011;8878;-33.370;-70.552;2023-05-10T14:07:21;2.95;;;1.35;;
17520;SDS011;8878;-33.370;-70.552;2023-05-10T14:09:51;4.38;;;1.52;;
17520;SDS011;8878;-33.370;-70.552;2023-05-10T14:12:20;2.25;;;1.52;;
17520;SDS011;8878;-33.370;-70.552;2023-05-10T14:14:50;6.25;;;1.77;;
17520;SDS011;8878;-33.370;-70.552;2023-05-10T14:17:19;2.78;;;1.10;;
17520;SDS011;8878;-33.370;-70.552;2023-05-10T14:19:51;2.70;;;1.40;;
17520;SDS011;8878;-33.370;-70.552;2023-05-10T14:22:21;4.35;;;1.83;;
17520;SDS011;8878;-33.370;-70.552;2023-05-10T14:24:51;4.03;;;1.15;;
17520;SDS011;8878;-33.370;-70.552;2023-05-10T14:27:21;3.47;;;1.65;;
17520;SDS011;8878;-33.370;-70.552;2023-05-10T14:29:50;4.40;;;1.20;;
17520;SDS011;8878;-33.370;-70.552;2023-05-10T14:32:20;2.10;;;1.23;;
17520;SDS011;8878;-33.370;-70.552;2023-05-10T14:34:52;4.45;;;1.75;;
17520;SDS011;8878;-33.370;-70.552;2023-05-10T14:37:21;5.53;;;1.70;;
17520;SDS011;8878;-33.370;-70.552;2023-05-10T14:39:51;6.03;;;2.80;;
17520;SDS011;8878;-33.370;-70.552;2023-05-10T14:42:21;7.63;;;2.83;;
17520;SDS011;8878;-33.370;-70.552;2023-05-10T14:44:51;6.10;;;2.13;;
17520;SDS011;8878;-33.370;-70.552;2023-05-10T14:47:21;9.05;;;1.85;;
17520;SDS011;8878;-33.370;-70.552;2023-05-10T14:49:52;3.67;;;1.48;;
17520;SDS011;8878;-33.370;-70.552;2023-05-10T14:52:21;6.20;;;1.83;;